createdAt,value
2023-02-15T00:03:18.024Z,22.30
2023-02-15T00:08:20.865Z,20.98
2023-02-15T00:13:23.646Z,21.27
2023-02-15T00:18:26.517Z,20.52
2023-02-15T00:23:29.374Z,21.75
2023-02-15T00:28:32.638Z,20.63
2023-02-15T00:33:36.420Z,21.13
2023-02-15T00:38:39.432Z,16.07
2023-02-15T00:43:42.026Z,16.30
2023-02-15T00:48:44.701Z,13.88
2023-02-15T00:53:47.483Z,12.20
2023-02-15T00:58:50.302Z,9.15
2023-02-15T01:03:53.205Z,8.90
2023-02-15T01:08:56.024Z,7.68
2023-02-15T01:13:59.737Z,8.90
2023-02-15T01:19:03.908Z,8.20
2023-02-15T01:24:16.330Z,8.38
2023-02-15T01:29:19.030Z,7.73
2023-02-15T01:34:21.962Z,7.75
2023-02-15T01:39:24.642Z,8.43
2023-02-15T01:44:58.953Z,7.25
2023-02-15T01:50:22.870Z,8.25
2023-02-15T01:55:30.336Z,9.70
2023-02-15T02:00:35.180Z,6.55
2023-02-15T02:05:39.230Z,6.63
2023-02-15T02:10:41.993Z,7.03
2023-02-15T02:16:10.420Z,8.90
2023-02-15T02:21:49.200Z,8.47
2023-02-15T02:27:15.286Z,8.25
2023-02-15T02:32:39.488Z,8.75
2023-02-15T02:38:08.431Z,9.10
2023-02-15T02:43:39.707Z,6.82
2023-02-15T02:48:42.533Z,8.20
2023-02-15T02:53:45.167Z,8.77
2023-02-15T02:59:20.010Z,7.72
2023-02-15T03:04:29.660Z,8.10
2023-02-15T03:09:43.422Z,7.28
2023-02-15T03:14:53.613Z,8.73
2023-02-15T03:20:01.601Z,7.60
2023-02-15T03:25:13.861Z,8.10
2023-02-15T03:30:22.252Z,6.82
2023-02-15T03:35:30.881Z,8.88
2023-02-15T03:40:58.870Z,8.33
2023-02-15T03:46:14.073Z,7.90
2023-02-15T03:51:36.142Z,7.43
2023-02-15T03:56:42.253Z,7.80
2023-02-15T04:02:01.253Z,9.02
2023-02-15T04:07:06.663Z,8.67
2023-02-15T04:12:09.527Z,8.50
2023-02-15T04:17:12.182Z,9.50
2023-02-15T04:22:33.223Z,7.32
2023-02-15T04:27:36.433Z,8.40
2023-02-15T04:32:39.735Z,9.47
2023-02-15T04:37:43.250Z,8.32
2023-02-15T04:42:45.936Z,8.45
2023-02-15T04:47:48.560Z,8.38
2023-02-15T04:52:51.272Z,6.30
2023-02-15T04:57:54.011Z,5.77
2023-02-15T05:02:56.722Z,6.55
2023-02-15T05:07:59.996Z,6.93
2023-02-15T05:13:02.660Z,6.78
2023-02-15T05:18:07.081Z,5.95
2023-02-15T05:23:09.790Z,5.03
2023-02-15T05:28:22.220Z,2.00
2023-02-15T05:33:24.921Z,4.35
2023-02-15T05:38:27.762Z,7.00
2023-02-15T05:43:30.867Z,6.57
2023-02-15T05:48:34.588Z,4.50
2023-02-15T05:53:39.387Z,5.40
2023-02-15T05:58:43.230Z,6.20
2023-02-15T06:03:47.343Z,2.72
2023-02-15T06:08:50.274Z,5.63
2023-02-15T06:13:52.940Z,4.90
2023-02-15T06:18:55.729Z,4.55
2023-02-15T06:23:58.871Z,4.93
2023-02-15T06:29:01.932Z,4.55
2023-02-15T06:34:04.728Z,6.00
2023-02-15T06:39:07.751Z,2.37
2023-02-15T06:44:10.789Z,6.28
2023-02-15T06:49:13.543Z,4.25
2023-02-15T06:54:16.429Z,5.30
2023-02-15T06:59:19.208Z,4.22
2023-02-15T07:04:22.007Z,5.77
2023-02-15T07:09:24.786Z,6.43
2023-02-15T07:14:28.969Z,4.78
2023-02-15T07:19:31.942Z,6.40
2023-02-15T07:24:34.641Z,6.97
2023-02-15T07:29:37.460Z,5.83
2023-02-15T07:34:41.693Z,5.60
2023-02-15T07:39:44.327Z,6.25
2023-02-15T07:44:47.520Z,6.47
2023-02-15T07:49:50.620Z,4.57
2023-02-15T07:54:53.580Z,4.53
2023-02-15T07:59:56.301Z,6.18
2023-02-15T08:04:59.134Z,6.28
2023-02-15T08:10:01.945Z,5.63
2023-02-15T08:15:05.844Z,6.20
2023-02-15T08:20:09.792Z,6.07
2023-02-15T08:25:12.512Z,7.63
2023-02-15T08:30:15.836Z,7.55
2023-02-15T08:35:18.694Z,7.32
2023-02-15T08:40:21.965Z,7.18
2023-02-15T08:45:26.798Z,3.87
2023-02-15T08:50:29.558Z,5.97
2023-02-15T08:55:32.526Z,4.80
2023-02-15T09:00:35.410Z,5.72
2023-02-15T09:05:38.267Z,7.30
2023-02-15T09:10:41.071Z,8.20
2023-02-15T09:15:43.780Z,7.40
2023-02-15T09:20:46.539Z,7.53
2023-02-15T09:25:49.354Z,8.23
2023-02-15T09:30:52.662Z,8.75
2023-02-15T09:35:55.792Z,8.70
2023-02-15T09:41:18.154Z,7.18
2023-02-15T09:46:42.333Z,7.30
2023-02-15T09:52:05.373Z,8.25
2023-02-15T09:57:35.885Z,9.10
2023-02-15T10:02:53.686Z,8.90
2023-02-15T10:08:14.996Z,8.77
2023-02-15T10:13:38.215Z,8.27
2023-02-15T10:18:53.770Z,8.48
2023-02-15T10:24:15.215Z,8.90
2023-02-15T10:29:37.549Z,8.07
2023-02-15T10:34:49.317Z,8.25
2023-02-15T10:40:14.088Z,7.50
2023-02-15T10:45:45.811Z,8.93
2023-02-15T10:50:54.433Z,8.10
2023-02-15T10:56:28.108Z,9.03
2023-02-15T11:01:52.815Z,8.50
2023-02-15T11:07:00.235Z,7.97
2023-02-15T11:12:03.683Z,8.57
2023-02-15T11:17:24.969Z,7.95
2023-02-15T11:22:28.119Z,7.83
2023-02-15T11:27:36.518Z,8.82
2023-02-15T11:32:48.424Z,8.80
2023-02-15T11:38:07.412Z,8.38
2023-02-15T11:43:24.590Z,9.05
2023-02-15T11:48:27.435Z,8.83
2023-02-15T11:53:34.987Z,9.95
2023-02-15T11:58:44.085Z,8.98
2023-02-15T12:04:03.358Z,8.40
2023-02-15T12:09:09.187Z,9.30
2023-02-15T12:14:17.132Z,9.27
2023-02-15T12:19:29.547Z,9.18
2023-02-15T12:24:45.654Z,9.90
2023-02-15T12:29:55.061Z,11.15
2023-02-15T12:35:09.488Z,10.93
2023-02-15T12:40:41.472Z,10.70
2023-02-15T12:45:44.994Z,9.82
2023-02-15T12:50:54.728Z,10.55
2023-02-15T12:56:07.306Z,11.48
2023-02-15T13:01:17.746Z,10.95
2023-02-15T13:06:22.016Z,10.47
2023-02-15T13:11:35.416Z,11.57
2023-02-15T13:16:41.012Z,11.07
2023-02-15T13:21:49.035Z,11.10
2023-02-15T13:26:55.953Z,11.88
2023-02-15T13:32:18.712Z,11.77
2023-02-15T13:37:27.531Z,11.63
2023-02-15T13:42:34.402Z,12.52
2023-02-15T13:47:55.922Z,10.82
2023-02-15T13:53:23.154Z,11.00
2023-02-15T13:58:41.152Z,11.50
2023-02-15T14:04:28.184Z,11.23
2023-02-15T14:09:53.211Z,10.90
2023-02-15T14:15:23.887Z,10.77
2023-02-15T14:20:32.801Z,11.35
2023-02-15T14:25:42.852Z,11.53
2023-02-15T14:30:51.279Z,11.75
2023-02-15T14:35:55.484Z,10.93
2023-02-15T14:41:16.393Z,10.38
2023-02-15T14:46:37.647Z,10.32
2023-02-15T14:51:52.048Z,10.07
2023-02-15T14:57:04.214Z,10.75
2023-02-15T15:02:10.025Z,9.77
2023-02-15T15:07:27.999Z,10.38
2023-02-15T15:12:33.775Z,9.68
2023-02-15T15:17:39.266Z,11.03
2023-02-15T15:22:44.249Z,10.52
2023-02-15T15:27:54.632Z,10.07
2023-02-15T15:32:57.890Z,9.70
2023-02-15T15:38:15.946Z,10.13
2023-02-15T15:43:35.192Z,9.70
2023-02-15T15:48:40.155Z,10.40
2023-02-15T15:53:48.369Z,10.32
2023-02-15T15:58:55.590Z,9.07
2023-02-15T16:04:00.587Z,10.20
2023-02-15T16:09:25.059Z,10.00
2023-02-15T16:14:34.028Z,9.68
2023-02-15T16:19:43.984Z,10.65
2023-02-15T16:25:06.736Z,13.65
2023-02-15T16:30:19.044Z,15.25
2023-02-15T16:35:23.805Z,16.27
2023-02-15T16:40:28.753Z,12.68
2023-02-15T16:45:33.606Z,12.23
2023-02-15T16:50:39.175Z,11.27
2023-02-15T16:55:43.790Z,12.18
2023-02-15T17:00:47.025Z,13.13
2023-02-15T17:05:53.651Z,12.75
2023-02-15T17:11:20.919Z,13.23
2023-02-15T17:16:34.391Z,12.45
2023-02-15T17:21:43.148Z,11.07
2023-02-15T17:26:52.266Z,10.77
2023-02-15T17:31:58.808Z,11.45
2023-02-15T17:37:03.527Z,12.48
2023-02-15T17:42:06.323Z,11.52
2023-02-15T17:47:16.315Z,11.07
2023-02-15T17:52:19.493Z,12.70
2023-02-15T17:57:22.383Z,12.40
2023-02-15T18:02:43.963Z,14.35
2023-02-15T18:08:05.320Z,14.27
2023-02-15T18:13:08.312Z,14.20
2023-02-15T18:18:13.817Z,14.00
2023-02-15T18:23:16.898Z,13.95
2023-02-15T18:28:19.756Z,16.20
2023-02-15T18:33:36.219Z,16.13
2023-02-15T18:38:39.215Z,15.27
2023-02-15T18:43:42.174Z,15.13
2023-02-15T18:48:46.776Z,14.95
2023-02-15T18:53:52.599Z,15.73
2023-02-15T18:58:55.291Z,16.27
2023-02-15T19:03:58.126Z,15.68
2023-02-15T19:09:01.118Z,17.70
2023-02-15T19:14:04.047Z,17.73
2023-02-15T19:19:07.499Z,16.38
2023-02-15T19:24:20.437Z,15.82
2023-02-15T19:29:30.833Z,17.67
2023-02-15T19:34:33.729Z,17.63
2023-02-15T19:39:40.604Z,17.48
2023-02-15T19:44:44.099Z,17.65
2023-02-15T19:49:46.890Z,15.57
2023-02-15T19:54:50.329Z,15.82
2023-02-15T19:59:53.042Z,17.80
2023-02-15T20:04:55.982Z,17.95
2023-02-15T20:09:58.823Z,16.63
2023-02-15T20:15:01.590Z,16.90
2023-02-15T20:20:04.618Z,19.45
2023-02-15T20:25:12.165Z,20.00
2023-02-15T20:30:26.415Z,20.65
2023-02-15T20:35:29.546Z,18.75
2023-02-15T20:40:35.423Z,20.05
2023-02-15T20:45:39.233Z,18.95
2023-02-15T20:50:41.908Z,19.73
2023-02-15T20:55:44.748Z,18.33
2023-02-15T21:00:47.777Z,18.02
2023-02-15T21:05:51.010Z,20.13
2023-02-15T21:10:54.395Z,20.42
2023-02-15T21:15:58.689Z,21.03
2023-02-15T21:21:04.142Z,17.88
2023-02-15T21:26:14.231Z,19.38
2023-02-15T21:31:23.055Z,19.08
2023-02-15T21:36:27.062Z,17.73
2023-02-15T21:41:48.180Z,18.73
2023-02-15T21:47:10.538Z,19.60
2023-02-15T21:52:14.972Z,19.48
2023-02-15T21:57:19.476Z,19.75
2023-02-15T22:02:29.402Z,20.10
2023-02-15T22:07:32.292Z,21.77
2023-02-15T22:12:35.610Z,20.95
2023-02-15T22:17:38.447Z,22.15
2023-02-15T22:22:41.288Z,20.00
2023-02-15T22:27:45.199Z,22.58
2023-02-15T22:32:48.173Z,21.40
2023-02-15T22:37:51.097Z,22.35
2023-02-15T22:42:55.493Z,20.88
2023-02-15T22:48:00.544Z,20.73
2023-02-15T22:53:03.974Z,21.58
2023-02-15T22:58:07.328Z,24.87
2023-02-15T23:03:25.264Z,22.50
2023-02-15T23:08:28.118Z,23.45
2023-02-15T23:13:33.264Z,21.65
2023-02-15T23:18:43.851Z,23.83
2023-02-15T23:23:49.805Z,22.33
2023-02-15T23:28:53.181Z,22.83
2023-02-15T23:33:56.688Z,22.90
2023-02-15T23:39:25.182Z,20.75
2023-02-15T23:44:28.504Z,23.00
2023-02-15T23:49:31.227Z,22.30
2023-02-15T23:54:33.898Z,21.27
2023-02-15T23:59:37.332Z,20.98
